createdAt,value
2022-10-15T00:02:27.515Z,13.27
2022-10-15T00:05:30.630Z,13.30
2022-10-15T00:08:34.001Z,13.30
2022-10-15T00:11:39.785Z,13.26
2022-10-15T00:14:42.802Z,13.27
2022-10-15T00:17:45.780Z,13.26
2022-10-15T00:20:48.723Z,13.24
2022-10-15T00:23:51.717Z,13.22
2022-10-15T00:26:55.995Z,13.19
2022-10-15T00:30:00.183Z,13.21
2022-10-15T00:33:03.176Z,13.18
2022-10-15T00:36:09.088Z,13.20
2022-10-15T00:39:12.097Z,13.22
2022-10-15T00:42:17.164Z,13.23
2022-10-15T00:45:20.596Z,13.23
2022-10-15T00:48:23.879Z,13.25
2022-10-15T00:51:33.139Z,13.23
2022-10-15T00:54:41.158Z,13.25
2022-10-15T00:57:48.406Z,13.27
2022-10-15T01:00:51.841Z,13.28
2022-10-15T01:03:56.683Z,13.28
2022-10-15T01:06:59.707Z,13.24
2022-10-15T01:10:03.597Z,13.27
2022-10-15T01:13:16.470Z,13.28
2022-10-15T01:16:24.323Z,13.29
2022-10-15T01:19:52.324Z,13.27
2022-10-15T01:23:23.654Z,13.29
2022-10-15T01:27:16.532Z,13.29
2022-10-15T01:30:24.924Z,13.28
2022-10-15T01:33:38.154Z,13.27
2022-10-15T01:36:51.084Z,13.27
2022-10-15T01:40:00.149Z,13.28
2022-10-15T01:43:07.675Z,13.31
2022-10-15T01:46:48.272Z,13.28
2022-10-15T01:50:00.547Z,13.31
2022-10-15T01:53:06.730Z,13.34
2022-10-15T01:56:14.182Z,13.33
2022-10-15T01:59:22.095Z,13.34
2022-10-15T02:02:26.906Z,13.34
2022-10-15T02:05:36.474Z,13.35
2022-10-15T02:08:46.034Z,13.37
2022-10-15T02:12:02.053Z,13.36
2022-10-15T02:15:12.497Z,13.34
2022-10-15T02:18:22.504Z,13.36
2022-10-15T02:21:32.895Z,13.34
2022-10-15T02:24:40.539Z,13.36
2022-10-15T02:27:46.961Z,13.35
2022-10-15T02:30:53.702Z,13.39
2022-10-15T02:34:02.599Z,13.35
2022-10-15T02:37:08.094Z,13.37
2022-10-15T02:40:12.119Z,13.38
2022-10-15T02:43:17.780Z,13.39
2022-10-15T02:46:21.856Z,13.37
2022-10-15T02:49:26.271Z,13.40
2022-10-15T02:52:29.367Z,13.34
2022-10-15T02:55:32.642Z,13.37
2022-10-15T02:58:35.787Z,13.36
2022-10-15T03:01:38.907Z,13.37
2022-10-15T03:04:43.871Z,13.36
2022-10-15T03:07:47.891Z,13.38
2022-10-15T03:10:51.333Z,13.32
2022-10-15T03:13:54.424Z,13.35
2022-10-15T03:16:57.946Z,13.35
2022-10-15T03:20:03.262Z,13.39
2022-10-15T03:23:08.612Z,13.38
2022-10-15T03:26:11.701Z,13.41
2022-10-15T03:29:14.930Z,13.41
2022-10-15T03:32:23.463Z,13.40
2022-10-15T03:35:27.871Z,13.33
2022-10-15T03:38:31.606Z,13.29
2022-10-15T03:41:35.093Z,13.14
2022-10-15T03:44:38.479Z,13.06
2022-10-15T03:47:46.204Z,13.10
2022-10-15T03:50:50.532Z,13.12
2022-10-15T03:53:54.227Z,13.14
2022-10-15T03:56:57.603Z,13.06
2022-10-15T04:00:09.443Z,13.13
2022-10-15T04:03:15.793Z,13.15
2022-10-15T04:06:20.535Z,13.14
2022-10-15T04:09:24.260Z,13.16
2022-10-15T04:12:27.538Z,13.19
2022-10-15T04:15:30.764Z,13.22
2022-10-15T04:18:39.165Z,13.26
2022-10-15T04:21:43.728Z,13.28
2022-10-15T04:25:00.151Z,13.23
2022-10-15T04:28:05.238Z,13.21
2022-10-15T04:31:17.826Z,13.16
2022-10-15T04:34:20.818Z,13.07
2022-10-15T04:37:26.311Z,13.06
2022-10-15T04:40:30.072Z,13.12
2022-10-15T04:43:34.545Z,13.14
2022-10-15T04:46:41.895Z,13.12
2022-10-15T04:50:20.153Z,13.15
2022-10-15T04:53:47.743Z,13.12
2022-10-15T04:56:51.464Z,13.16
2022-10-15T04:59:57.621Z,13.13
2022-10-15T05:03:21.024Z,13.15
2022-10-15T05:06:34.884Z,13.15
2022-10-15T05:09:52.805Z,13.23
2022-10-15T05:12:56.939Z,13.18
2022-10-15T05:16:13.831Z,13.25
2022-10-15T05:19:17.821Z,13.27
2022-10-15T05:22:21.333Z,13.31
2022-10-15T05:25:30.616Z,13.30
2022-10-15T05:28:34.009Z,13.31
2022-10-15T05:31:39.270Z,13.35
2022-10-15T05:34:55.166Z,13.30
2022-10-15T05:37:58.308Z,13.26
2022-10-15T05:41:02.561Z,13.30
2022-10-15T05:44:06.216Z,13.29
2022-10-15T05:47:11.962Z,13.29
2022-10-15T05:50:16.670Z,13.33
2022-10-15T05:53:23.262Z,13.33
2022-10-15T05:56:31.980Z,13.34
2022-10-15T05:59:35.001Z,13.37
2022-10-15T06:02:38.076Z,13.44
2022-10-15T06:05:41.136Z,13.42
2022-10-15T06:08:44.271Z,13.44
2022-10-15T06:11:48.722Z,13.50
2022-10-15T06:14:54.556Z,13.52
2022-10-15T06:17:57.548Z,13.44
2022-10-15T06:21:00.569Z,13.47
2022-10-15T06:24:06.316Z,13.51
2022-10-15T06:27:13.903Z,13.55
2022-10-15T06:30:17.096Z,13.58
2022-10-15T06:33:20.031Z,13.61
2022-10-15T06:36:24.246Z,13.67
2022-10-15T06:39:27.614Z,13.61
2022-10-15T06:42:31.876Z,13.71
2022-10-15T06:45:36.502Z,13.69
2022-10-15T06:48:42.423Z,13.68
2022-10-15T06:51:45.367Z,13.79
2022-10-15T06:54:48.293Z,13.81
2022-10-15T06:57:52.821Z,13.85
2022-10-15T07:01:03.471Z,13.91
2022-10-15T07:04:06.488Z,13.94
2022-10-15T07:07:09.472Z,13.84
2022-10-15T07:10:12.438Z,13.78
2022-10-15T07:13:18.619Z,13.76
2022-10-15T07:16:21.727Z,13.82
2022-10-15T07:19:24.707Z,13.86
2022-10-15T07:22:28.007Z,14.00
2022-10-15T07:25:31.339Z,14.11
2022-10-15T07:28:35.721Z,14.11
2022-10-15T07:31:38.679Z,14.21
2022-10-15T07:34:41.731Z,14.26
2022-10-15T07:37:44.808Z,14.27
2022-10-15T07:40:47.766Z,14.37
2022-10-15T07:43:53.142Z,14.54
2022-10-15T07:46:56.070Z,14.66
2022-10-15T07:49:59.262Z,14.73
2022-10-15T07:53:02.290Z,14.75
2022-10-15T07:56:08.743Z,14.76
2022-10-15T07:59:13.183Z,14.90
2022-10-15T08:02:17.611Z,14.91
2022-10-15T08:05:20.544Z,15.08
2022-10-15T08:08:23.693Z,15.08
2022-10-15T08:11:26.691Z,15.18
2022-10-15T08:14:31.206Z,15.22
2022-10-15T08:17:34.122Z,15.21
2022-10-15T08:20:37.430Z,15.35
2022-10-15T08:23:41.457Z,15.43
2022-10-15T08:26:44.775Z,15.48
2022-10-15T08:29:49.007Z,15.59
2022-10-15T08:32:52.078Z,15.70
2022-10-15T08:35:55.153Z,15.76
2022-10-15T08:38:58.601Z,15.88
2022-10-15T08:42:04.655Z,15.97
2022-10-15T08:45:17.125Z,16.13
2022-10-15T08:48:28.880Z,16.13
2022-10-15T08:51:43.110Z,16.20
2022-10-15T08:54:46.170Z,16.07
2022-10-15T08:57:55.232Z,16.16
2022-10-15T09:01:03.029Z,16.18
2022-10-15T09:04:19.777Z,16.12
2022-10-15T09:07:32.759Z,16.12
2022-10-15T09:10:45.315Z,16.18
2022-10-15T09:13:52.550Z,16.22
2022-10-15T09:17:07.648Z,16.30
2022-10-15T09:20:19.986Z,16.34
2022-10-15T09:23:30.727Z,16.32
2022-10-15T09:26:51.506Z,16.44
2022-10-15T09:30:05.270Z,16.57
2022-10-15T09:33:17.845Z,16.66
2022-10-15T09:36:36.666Z,16.70
2022-10-15T09:40:04.927Z,16.89
2022-10-15T09:43:12.105Z,16.95
2022-10-15T09:46:15.218Z,17.07
2022-10-15T09:49:25.696Z,17.30
2022-10-15T09:53:04.017Z,17.43
2022-10-15T09:56:14.695Z,17.36
2022-10-15T09:59:20.832Z,17.32
2022-10-15T10:02:26.878Z,17.25
2022-10-15T10:05:35.886Z,17.25
2022-10-15T10:08:57.130Z,17.25
2022-10-15T10:12:14.325Z,17.27
2022-10-15T10:15:40.028Z,17.38
2022-10-15T10:18:50.368Z,17.41
2022-10-15T10:22:13.122Z,17.45
2022-10-15T10:25:33.456Z,17.56
2022-10-15T10:28:44.202Z,17.62
2022-10-15T10:31:51.671Z,17.79
2022-10-15T10:35:21.347Z,18.01
2022-10-15T10:38:28.801Z,18.05
2022-10-15T10:41:52.973Z,18.17
2022-10-15T10:44:56.101Z,18.31
2022-10-15T10:48:00.564Z,18.42
2022-10-15T10:51:09.335Z,18.48
2022-10-15T10:54:24.507Z,18.58
2022-10-15T10:57:51.168Z,18.53
2022-10-15T11:00:59.091Z,18.57
2022-10-15T11:07:23.898Z,18.55
2022-10-15T11:10:37.412Z,18.55
2022-10-15T11:13:55.260Z,18.62
2022-10-15T11:17:05.823Z,18.64
2022-10-15T11:20:51.033Z,18.55
2022-10-15T11:24:04.929Z,18.84
2022-10-15T11:27:36.507Z,18.97
2022-10-15T11:30:51.452Z,18.83
2022-10-15T11:34:15.510Z,18.85
2022-10-15T11:37:37.925Z,18.98
2022-10-15T11:40:54.604Z,19.04
2022-10-15T11:44:26.649Z,19.20
2022-10-15T11:47:45.527Z,19.48
2022-10-15T11:50:53.481Z,19.56
2022-10-15T11:54:23.058Z,19.54
2022-10-15T11:57:27.687Z,19.49
2022-10-15T12:00:37.952Z,19.39
2022-10-15T12:03:50.810Z,19.48
2022-10-15T12:06:58.261Z,19.48
2022-10-15T12:10:15.036Z,19.51
2022-10-15T12:13:27.632Z,19.52
2022-10-15T12:16:43.001Z,19.24
2022-10-15T12:19:52.214Z,19.33
2022-10-15T12:22:58.973Z,19.35
2022-10-15T12:26:02.035Z,19.44
2022-10-15T12:29:18.352Z,19.47
2022-10-15T12:32:26.148Z,19.49
2022-10-15T12:35:36.459Z,19.35
2022-10-15T12:38:42.421Z,19.20
2022-10-15T12:41:51.043Z,19.25
2022-10-15T12:44:54.646Z,19.08
2022-10-15T12:48:21.407Z,18.89
2022-10-15T12:51:33.328Z,18.85
2022-10-15T12:54:41.790Z,18.80
2022-10-15T12:58:04.192Z,18.86
2022-10-15T13:01:21.184Z,18.89
2022-10-15T13:04:38.834Z,18.88
2022-10-15T13:07:48.206Z,18.87
2022-10-15T13:10:56.020Z,18.88
2022-10-15T13:14:02.895Z,18.74
2022-10-15T13:17:15.492Z,18.91
2022-10-15T13:20:33.677Z,18.76
2022-10-15T13:23:37.211Z,18.72
2022-10-15T13:26:40.183Z,18.78
2022-10-15T13:29:56.005Z,18.72
2022-10-15T13:32:58.971Z,18.61
2022-10-15T13:36:09.200Z,18.42
2022-10-15T13:42:59.120Z,18.39
2022-10-15T13:46:03.106Z,18.36
2022-10-15T13:49:13.792Z,18.41
2022-10-15T13:52:18.455Z,18.38
2022-10-15T13:55:25.791Z,18.28
2022-10-15T13:58:30.840Z,18.40
2022-10-15T14:01:36.174Z,18.54
2022-10-15T14:04:40.953Z,18.67
2022-10-15T14:07:55.437Z,18.72
2022-10-15T14:11:00.462Z,19.14
2022-10-15T14:14:03.796Z,19.42
2022-10-15T14:17:09.347Z,19.39
2022-10-15T14:20:27.226Z,19.26
2022-10-15T14:23:32.969Z,19.11
2022-10-15T14:26:36.385Z,18.98
2022-10-15T14:29:43.089Z,18.73
2022-10-15T14:32:47.922Z,18.52
2022-10-15T14:36:06.350Z,18.38
2022-10-15T14:39:31.219Z,18.40
2022-10-15T14:42:35.968Z,18.49
2022-10-15T14:45:44.702Z,18.60
2022-10-15T14:48:48.421Z,18.68
2022-10-15T14:52:04.527Z,18.66
2022-10-15T14:55:21.124Z,18.58
2022-10-15T14:58:29.756Z,18.55
2022-10-15T15:01:36.393Z,18.50
2022-10-15T15:04:46.820Z,18.33
2022-10-15T15:07:53.883Z,18.25
2022-10-15T15:11:04.082Z,18.20
2022-10-15T15:14:24.371Z,18.12
2022-10-15T15:17:30.402Z,18.11
2022-10-15T15:20:33.415Z,18.08
2022-10-15T15:23:37.141Z,17.97
2022-10-15T15:26:42.557Z,17.96
2022-10-15T15:29:48.353Z,17.99
2022-10-15T15:32:53.344Z,17.97
2022-10-15T15:36:01.783Z,17.94
2022-10-15T15:39:05.239Z,17.90
2022-10-15T15:42:13.650Z,17.88
2022-10-15T15:45:22.130Z,17.77
2022-10-15T15:48:33.428Z,17.61
2022-10-15T15:51:37.071Z,17.43
2022-10-15T15:54:45.553Z,17.22
2022-10-15T15:57:56.227Z,17.18
2022-10-15T16:01:04.686Z,17.18
2022-10-15T16:04:08.124Z,17.04
2022-10-15T16:07:13.559Z,16.95
2022-10-15T16:10:19.758Z,16.88
2022-10-15T16:13:32.174Z,16.73
2022-10-15T16:16:38.791Z,16.60
2022-10-15T16:19:42.210Z,16.56
2022-10-15T16:22:49.967Z,16.52
2022-10-15T16:26:01.988Z,16.44
2022-10-15T16:29:09.124Z,16.36
2022-10-15T16:32:15.342Z,16.30
2022-10-15T16:35:26.787Z,16.13
2022-10-15T16:38:35.915Z,15.98
2022-10-15T16:41:43.546Z,15.99
2022-10-15T16:44:47.905Z,15.86
2022-10-15T16:47:53.820Z,15.94
2022-10-15T16:51:01.107Z,15.79
2022-10-15T16:54:04.560Z,15.81
2022-10-15T16:57:10.175Z,15.80
2022-10-15T17:00:20.143Z,15.73
2022-10-15T17:03:23.185Z,15.68
2022-10-15T17:06:29.998Z,15.52
2022-10-15T17:09:33.359Z,15.44
2022-10-15T17:12:36.417Z,15.45
2022-10-15T17:15:55.875Z,15.45
2022-10-15T17:19:07.263Z,15.33
2022-10-15T17:22:10.562Z,15.30
2022-10-15T17:25:21.115Z,15.22
2022-10-15T17:28:29.460Z,15.15
2022-10-15T17:31:34.314Z,15.11
2022-10-15T17:34:37.533Z,15.06
2022-10-15T17:37:40.936Z,14.98
2022-10-15T17:40:44.035Z,14.86
2022-10-15T17:43:48.052Z,14.78
2022-10-15T17:46:53.119Z,14.71
2022-10-15T17:50:03.924Z,14.66
2022-10-15T17:53:07.502Z,14.65
2022-10-15T17:56:12.933Z,14.52
2022-10-15T17:59:15.954Z,14.53
2022-10-15T18:02:20.437Z,14.47
2022-10-15T18:05:24.306Z,14.50
2022-10-15T18:08:27.393Z,14.59
2022-10-15T18:11:34.570Z,14.61
2022-10-15T18:14:37.702Z,14.67
2022-10-15T18:17:42.002Z,14.70
2022-10-15T18:20:46.660Z,14.65
2022-10-15T18:23:49.667Z,14.59
2022-10-15T18:26:53.370Z,14.60
2022-10-15T18:29:56.394Z,14.59
2022-10-15T18:33:01.165Z,14.59
2022-10-15T18:36:08.866Z,14.61
2022-10-15T18:39:12.054Z,14.59
2022-10-15T18:42:15.010Z,14.54
2022-10-15T18:45:18.072Z,14.48
2022-10-15T18:48:22.310Z,14.39
2022-10-15T18:51:26.063Z,14.39
2022-10-15T18:54:31.310Z,14.44
2022-10-15T18:57:34.764Z,14.57
2022-10-15T19:00:37.809Z,14.61
2022-10-15T19:03:42.207Z,14.66
2022-10-15T19:06:50.079Z,14.70
2022-10-15T19:09:53.038Z,14.75
2022-10-15T19:13:02.565Z,14.72
2022-10-15T19:16:08.721Z,14.76
2022-10-15T19:19:16.253Z,14.63
2022-10-15T19:22:25.339Z,14.61
2022-10-15T19:25:28.435Z,14.52
2022-10-15T19:28:31.435Z,14.46
2022-10-15T19:31:37.723Z,14.43
2022-10-15T19:34:42.172Z,14.52
2022-10-15T19:37:45.335Z,14.61
2022-10-15T19:40:52.281Z,14.69
2022-10-15T19:43:55.310Z,14.76
2022-10-15T19:46:58.485Z,14.80
2022-10-15T19:50:03.062Z,14.84
2022-10-15T19:53:06.848Z,14.87
2022-10-15T19:56:12.075Z,14.90
2022-10-15T19:59:16.767Z,14.93
2022-10-15T20:02:19.785Z,14.95
2022-10-15T20:05:24.094Z,14.98
2022-10-15T20:08:27.326Z,15.05
2022-10-15T20:11:30.622Z,15.05
2022-10-15T20:14:33.691Z,15.07
2022-10-15T20:17:36.853Z,15.08
2022-10-15T20:20:45.368Z,15.06
2022-10-15T20:23:48.676Z,15.11
2022-10-15T20:26:52.225Z,15.09
2022-10-15T20:29:55.426Z,15.10
2022-10-15T20:32:58.694Z,15.09
2022-10-15T20:36:08.918Z,15.10
2022-10-15T20:39:12.145Z,15.06
2022-10-15T20:42:15.124Z,15.05
2022-10-15T20:45:18.236Z,15.03
2022-10-15T20:48:24.356Z,14.97
2022-10-15T20:51:28.947Z,14.90
2022-10-15T20:54:32.345Z,14.92
2022-10-15T20:57:36.572Z,14.82
2022-10-15T21:00:42.952Z,14.74
2022-10-15T21:03:55.842Z,14.69
2022-10-15T21:07:01.817Z,14.76
2022-10-15T21:10:06.091Z,14.75
2022-10-15T21:13:18.421Z,14.76
2022-10-15T21:16:24.580Z,14.69
2022-10-15T21:19:30.775Z,14.61
2022-10-15T21:22:35.269Z,14.50
2022-10-15T21:28:46.536Z,14.39
2022-10-15T21:31:52.501Z,14.29
2022-10-15T21:34:55.445Z,14.28
2022-10-15T21:38:02.032Z,14.11
2022-10-15T21:41:05.310Z,14.09
2022-10-15T21:44:09.204Z,14.03
2022-10-15T21:47:15.133Z,14.00
2022-10-15T21:50:18.845Z,13.96
2022-10-15T21:53:23.524Z,13.92
2022-10-15T21:56:28.332Z,13.89
2022-10-15T21:59:31.434Z,13.78
2022-10-15T22:02:34.602Z,13.73
2022-10-15T22:05:37.712Z,13.69
2022-10-15T22:08:42.769Z,13.66
2022-10-15T22:11:45.902Z,13.60
2022-10-15T22:14:48.984Z,13.59
2022-10-15T22:17:51.919Z,13.61
2022-10-15T22:20:54.977Z,13.64
2022-10-15T22:24:02.414Z,13.69
2022-10-15T22:27:05.430Z,13.76
2022-10-15T22:30:10.267Z,13.75
2022-10-15T22:33:13.425Z,13.71
2022-10-15T22:36:19.640Z,13.70
2022-10-15T22:39:24.020Z,13.70
2022-10-15T22:42:27.524Z,13.65
2022-10-15T22:45:31.571Z,13.61
2022-10-15T22:48:35.155Z,13.62
2022-10-15T22:51:40.606Z,13.55
2022-10-15T22:54:45.113Z,13.53
2022-10-15T22:57:48.553Z,13.49
2022-10-15T23:00:51.834Z,13.46
2022-10-15T23:03:57.441Z,13.40
2022-10-15T23:07:00.686Z,13.41
2022-10-15T23:10:05.717Z,13.28
2022-10-15T23:13:09.325Z,13.29
2022-10-15T23:16:15.873Z,13.27
2022-10-15T23:19:21.706Z,13.23
2022-10-15T23:22:25.276Z,13.14
2022-10-15T23:25:29.998Z,13.10
2022-10-15T23:28:33.096Z,13.09
2022-10-15T23:31:37.226Z,13.05
2022-10-15T23:34:40.769Z,13.08
2022-10-15T23:37:46.590Z,13.11
2022-10-15T23:40:51.901Z,13.21
2022-10-15T23:43:55.519Z,13.33
2022-10-15T23:46:58.523Z,13.44
2022-10-15T23:50:01.571Z,13.50
2022-10-15T23:53:04.831Z,13.49
2022-10-15T23:56:09.489Z,13.54
2022-10-15T23:59:12.937Z,13.58
